Impacts TAF Board
For situational awareness. Not to be used for flight planning purposes.
IDs:

KCXO - Conroe/Executive Arp, TX, US

Issued at 1135 UTC 14 Dec 2019
Updated at 1341 UTC 14 Dec 2019
Potential Impact None Slight Moderate High
Time1253Z 14/14Z 14/15Z 14/16Z 14/17Z 14/18Z 14/19Z 14/20Z 14/21Z 14/22Z 14/23Z 15/00Z 15/01Z 15/02Z>>
Type OBS PRVL PRVL PRVL PRVL PRVL PRVL PRVL PRVL PRVL PRVL PRVL PRVL PRVL
VIS 10 >6 >6 >6 >6 >6 >6 >6 >6 >6 >6 >6 >6 >6
CIG -- -- -- -- -- -- -- -- -- -- -- -- -- --
Cover CLR SKC SKC SKC SKC SKC SKC SKC SKC SKC SKC SKC SKC SKC
FltCat VFR VFR VFR VFR VFR VFR VFR VFR VFR VFR VFR VFR VFR VFR
WX -- -- -- -- -- -- -- -- -- -- -- -- -- --
WDir VRB VRB VRB 100 100 100 100 100 150 150 150 150 150 150
WSpd 0 0 0 5 5 5 5 5 5 5 5 5 5 5
WGst -- -- -- -- -- -- -- -- -- -- -- -- -- --
Raw TAF
KCXO 141135Z 1412/1512 00000KT P6SM SKC
  FM141600 10005KT P6SM SKC
  FM142100 15005KT P6SM SKC
  FM150800 17003KT 5SM BR BKN025
  FM151000 VRB03KT 3SM BR BKN015


Raw METAR
KCXO 141253Z 00000KT 10SM CLR 03/02 A2990 RMK AO2 SLP125 T00280022
KCXO 141153Z 33003KT 10SM CLR 03/02 A2989 RMK AO2 SLP120 T00280022 10061 20028 53007
KCXO 141053Z AUTO 00000KT 10SM CLR 03/02 A2988 RMK AO2 SLP116 T00330022

METAR Board
Radar Display
Forecast Discussion
For situational awareness. Not to be used for flight planning purposes.